Terminal Aerodrome Forecast
Issued by NWS

Home | Current Version | Previous Version | Text Only | Print | Product List | Glossary On
Versions: 1 2 3 4 5 6 7 8 9 10 11 12 13 14 15
000
FTUS43 KILX 020700 AAA
TAFBMI
TAF AMD
KBMI 020733Z 0208/0306 18018KT P6SM VCTS SCT040CB BKN060
      WS020/20045KT
      TEMPO 0208/0210 6SM -TSRA BKN040CB
     FM021400 22020G29KT 6SM -SHRA VCTS BKN035CB
     FM022100 32012KT P6SM BKN120=

USA.gov is the U.S. government's official web portal to all federal, state and local government web resources and services.